This is the latest recevied weather packets stored in our database for station/object F8KGK-5. If no packets are shown the sender has not sent any weather packets the latest 10 day(s).
| Time | Temp. | Humidity | Pressure | Rain* | Wind** | Luminosity | Snow |
|---|---|---|---|---|---|---|---|
| 1787923946 | 26.67° C | 53% | 1004.8 hPa | 0 mm | - | - | - |
| 1787922145 | 21.11° C | 67% | 1004.6 hPa | 0 mm | - | - | - |
| 1787920345 | 20.56° C | 69% | 1004.6 hPa | 0 mm | - | - | - |
| 1787918544 | 20° C | 71% | 1004.4 hPa | 0 mm | - | - | - |
| 1787916745 | 19.44° C | 72% | 1004.3 hPa | 0 mm | - | - | - |
| 1787914946 | 20° C | 71% | 1004 hPa | 0 mm | - | - | - |
| 1787913144 | 19.44° C | 75% | 1003.6 hPa | 0 mm | - | - | - |
| 1787911346 | 18.89° C | 77% | 1003.6 hPa | 0 mm | - | - | - |
| 1787909545 | 18.33° C | 76% | 1003.3 hPa | 0 mm | - | - | - |
| 1787907745 | 21.11° C | 73% | 1003.1 hPa | 0 mm | - | - | - |
| 1787905944 | 19.44° C | 79% | 1002.7 hPa | 0 mm | - | - | - |
| 1787904145 | 17.22° C | 93% | 1002.8 hPa | 0.51 mm | - | - | - |
| 1787902345 | 15° C | 92% | 1002.8 hPa | 1.52 mm | - | - | - |
| 1787900546 | 14.44° C | 92% | 1002.1 hPa | 8.38 mm | - | - | - |
| 1787898745 | 14.44° C | 92% | 1002.8 hPa | 10.41 mm | - | - | - |
| 1787896944 | 16.11° C | 92% | 1002.6 hPa | 3.05 mm | - | - | - |
| 1787895146 | 16.11° C | 92% | 1001.1 hPa | 0.51 mm | - | - | - |
| 1787893345 | 16.11° C | 92% | 1001.9 hPa | 0.51 mm | - | - | - |
| 1787891544 | 16.67° C | 92% | 1002.2 hPa | 0 mm | - | - | - |
| 1787889746 | 16.11° C | 92% | 1002.5 hPa | 0 mm | - | - | - |
| 1787887945 | 16.11° C | 91% | 1001.8 hPa | 0 mm | - | - | - |
| 1787886145 | 16.67° C | 91% | 1001.6 hPa | 0 mm | - | - | - |
| 1787884344 | 17.22° C | 91% | 1002.6 hPa | 0 mm | - | - | - |
| 1787882545 | 16.67° C | 91% | 1002.9 hPa | 0 mm | - | - | - |
| 1787880745 | 16.67° C | 90% | 1002.7 hPa | 0 mm | - | - | - |
* Rain latest hour (hover to see other rain measurements)
** Current wind speed in m/s (hover to see current wind gust speed)